sensor_id;sensor_type;location;lat;lon;timestamp;P1;durP1;ratioP1;P2;durP2;ratioP2
70301;SDS011;57706;56.326;43.882;2022-09-21T00:01:22;10.30;;;6.38;;
70301;SDS011;57706;56.326;43.882;2022-09-21T00:03:51;13.25;;;7.55;;
70301;SDS011;57706;56.326;43.882;2022-09-21T00:06:22;9.65;;;6.50;;
70301;SDS011;57706;56.326;43.882;2022-09-21T00:09:08;12.25;;;6.85;;
70301;SDS011;57706;56.326;43.882;2022-09-21T00:11:34;10.60;;;6.10;;
70301;SDS011;57706;56.326;43.882;2022-09-21T00:14:02;9.27;;;7.60;;
70301;SDS011;57706;56.326;43.882;2022-09-21T00:16:35;11.45;;;5.75;;
70301;SDS011;57706;56.326;43.882;2022-09-21T00:19:01;11.15;;;6.00;;
70301;SDS011;57706;56.326;43.882;2022-09-21T00:21:27;11.65;;;6.82;;
70301;SDS011;57706;56.326;43.882;2022-09-21T00:23:53;15.02;;;6.97;;
70301;SDS011;57706;56.326;43.882;2022-09-21T00:26:20;12.35;;;7.43;;
70301;SDS011;57706;56.326;43.882;2022-09-21T00:28:55;12.85;;;7.00;;
70301;SDS011;57706;56.326;43.882;2022-09-21T00:31:23;8.73;;;5.57;;
70301;SDS011;57706;56.326;43.882;2022-09-21T00:33:49;12.55;;;6.70;;
70301;SDS011;57706;56.326;43.882;2022-09-21T00:36:16;14.40;;;7.38;;
70301;SDS011;57706;56.326;43.882;2022-09-21T00:39:03;12.23;;;7.50;;
70301;SDS011;57706;56.326;43.882;2022-09-21T00:41:30;9.82;;;6.45;;
70301;SDS011;57706;56.326;43.882;2022-09-21T00:46:45;13.52;;;7.82;;
70301;SDS011;57706;56.326;43.882;2022-09-21T00:49:13;12.45;;;7.53;;
70301;SDS011;57706;56.326;43.882;2022-09-21T00:51:41;14.90;;;8.27;;
70301;SDS011;57706;56.326;43.882;2022-09-21T00:54:08;15.40;;;8.93;;
70301;SDS011;57706;56.326;43.882;2022-09-21T00:56:41;14.35;;;8.50;;
70301;SDS011;57706;56.326;43.882;2022-09-21T00:59:08;14.45;;;8.93;;
70301;SDS011;57706;56.326;43.882;2022-09-21T01:01:35;15.65;;;9.40;;
70301;SDS011;57706;56.326;43.882;2022-09-21T01:04:02;17.85;;;9.57;;
70301;SDS011;57706;56.326;43.882;2022-09-21T01:06:31;14.25;;;9.05;;
70301;SDS011;57706;56.326;43.882;2022-09-21T01:09:17;12.38;;;8.30;;
70301;SDS011;57706;56.326;43.882;2022-09-21T01:11:50;11.40;;;7.50;;
70301;SDS011;57706;56.326;43.882;2022-09-21T01:17:31;15.57;;;9.00;;
70301;SDS011;57706;56.326;43.882;2022-09-21T01:31:06;13.90;;;9.25;;
70301;SDS011;57706;56.326;43.882;2022-09-21T01:33:40;17.10;;;9.38;;
70301;SDS011;57706;56.326;43.882;2022-09-21T01:36:12;15.25;;;8.20;;
70301;SDS011;57706;56.326;43.882;2022-09-21T01:38:43;16.05;;;8.45;;
70301;SDS011;57706;56.326;43.882;2022-09-21T01:41:15;13.40;;;8.38;;
70301;SDS011;57706;56.326;43.882;2022-09-21T01:43:46;16.95;;;8.48;;
70301;SDS011;57706;56.326;43.882;2022-09-21T01:46:18;18.55;;;8.30;;
70301;SDS011;57706;56.326;43.882;2022-09-21T01:48:46;12.85;;;8.25;;
70301;SDS011;57706;56.326;43.882;2022-09-21T01:51:16;15.43;;;8.48;;
70301;SDS011;57706;56.326;43.882;2022-09-21T01:56:26;20.40;;;8.35;;
70301;SDS011;57706;56.326;43.882;2022-09-21T01:59:00;13.02;;;8.02;;
70301;SDS011;57706;56.326;43.882;2022-09-21T02:01:51;14.90;;;7.95;;
70301;SDS011;57706;56.326;43.882;2022-09-21T02:04:20;11.93;;;7.18;;
70301;SDS011;57706;56.326;43.882;2022-09-21T02:06:46;12.68;;;6.57;;
70301;SDS011;57706;56.326;43.882;2022-09-21T02:09:14;16.45;;;6.63;;
70301;SDS011;57706;56.326;43.882;2022-09-21T02:11:42;12.45;;;7.18;;
70301;SDS011;57706;56.326;43.882;2022-09-21T02:14:13;11.57;;;7.68;;
70301;SDS011;57706;56.326;43.882;2022-09-21T02:16:46;10.30;;;7.35;;
70301;SDS011;57706;56.326;43.882;2022-09-21T02:25:28;14.38;;;7.03;;
70301;SDS011;57706;56.326;43.882;2022-09-21T02:27:55;15.15;;;7.50;;
70301;SDS011;57706;56.326;43.882;2022-09-21T02:30:32;10.77;;;6.70;;
70301;SDS011;57706;56.326;43.882;2022-09-21T02:33:14;14.95;;;8.15;;
70301;SDS011;57706;56.326;43.882;2022-09-21T02:36:02;13.15;;;6.85;;
70301;SDS011;57706;56.326;43.882;2022-09-21T02:38:55;13.55;;;8.02;;
70301;SDS011;57706;56.326;43.882;2022-09-21T02:44:28;13.93;;;8.00;;
70301;SDS011;57706;56.326;43.882;2022-09-21T02:46:59;17.75;;;9.07;;
70301;SDS011;57706;56.326;43.882;2022-09-21T02:49:32;24.85;;;11.77;;
70301;SDS011;57706;56.326;43.882;2022-09-21T02:52:06;20.92;;;11.15;;
70301;SDS011;57706;56.326;43.882;2022-09-21T02:54:36;23.05;;;12.38;;
70301;SDS011;57706;56.326;43.882;2022-09-21T02:57:06;21.52;;;12.35;;
70301;SDS011;57706;56.326;43.882;2022-09-21T02:59:33;17.17;;;9.98;;
70301;SDS011;57706;56.326;43.882;2022-09-21T03:01:59;17.85;;;9.57;;
70301;SDS011;57706;56.326;43.882;2022-09-21T03:04:25;18.33;;;9.38;;
70301;SDS011;57706;56.326;43.882;2022-09-21T03:06:52;17.27;;;10.43;;
70301;SDS011;57706;56.326;43.882;2022-09-21T03:09:18;35.95;;;19.50;;
70301;SDS011;57706;56.326;43.882;2022-09-21T03:11:49;30.15;;;15.98;;
70301;SDS011;57706;56.326;43.882;2022-09-21T03:14:15;34.25;;;18.77;;
70301;SDS011;57706;56.326;43.882;2022-09-21T03:16:43;26.48;;;14.70;;
70301;SDS011;57706;56.326;43.882;2022-09-21T03:19:09;23.85;;;12.65;;
70301;SDS011;57706;56.326;43.882;2022-09-21T03:21:36;26.17;;;15.15;;
70301;SDS011;57706;56.326;43.882;2022-09-21T03:24:03;34.75;;;17.98;;
70301;SDS011;57706;56.326;43.882;2022-09-21T03:26:28;31.42;;;16.27;;
70301;SDS011;57706;56.326;43.882;2022-09-21T03:28:54;32.45;;;18.02;;
70301;SDS011;57706;56.326;43.882;2022-09-21T03:31:20;45.78;;;20.98;;
70301;SDS011;57706;56.326;43.882;2022-09-21T03:33:46;46.00;;;21.17;;
70301;SDS011;57706;56.326;43.882;2022-09-21T03:36:12;45.00;;;22.58;;
70301;SDS011;57706;56.326;43.882;2022-09-21T03:38:38;53.20;;;26.83;;
70301;SDS011;57706;56.326;43.882;2022-09-21T03:41:04;50.85;;;26.60;;
70301;SDS011;57706;56.326;43.882;2022-09-21T03:43:31;57.83;;;26.30;;
70301;SDS011;57706;56.326;43.882;2022-09-21T03:45:57;57.25;;;29.02;;
70301;SDS011;57706;56.326;43.882;2022-09-21T03:48:23;52.20;;;23.80;;
70301;SDS011;57706;56.326;43.882;2022-09-21T03:50:49;52.17;;;25.70;;
70301;SDS011;57706;56.326;43.882;2022-09-21T03:53:15;47.55;;;23.90;;
70301;SDS011;57706;56.326;43.882;2022-09-21T03:55:41;43.88;;;22.77;;
70301;SDS011;57706;56.326;43.882;2022-09-21T03:58:07;43.63;;;22.35;;
70301;SDS011;57706;56.326;43.882;2022-09-21T04:00:33;54.67;;;23.17;;
70301;SDS011;57706;56.326;43.882;2022-09-21T04:03:00;43.33;;;23.77;;
70301;SDS011;57706;56.326;43.882;2022-09-21T04:05:44;41.85;;;21.60;;
70301;SDS011;57706;56.326;43.882;2022-09-21T04:08:10;38.22;;;21.27;;
70301;SDS011;57706;56.326;43.882;2022-09-21T04:10:37;46.55;;;22.08;;
70301;SDS011;57706;56.326;43.882;2022-09-21T04:13:05;40.20;;;20.63;;
70301;SDS011;57706;56.326;43.882;2022-09-21T04:15:31;41.65;;;19.80;;
70301;SDS011;57706;56.326;43.882;2022-09-21T04:17:56;39.05;;;17.85;;
70301;SDS011;57706;56.326;43.882;2022-09-21T04:20:23;42.90;;;21.50;;
70301;SDS011;57706;56.326;43.882;2022-09-21T04:22:49;34.22;;;20.27;;
70301;SDS011;57706;56.326;43.882;2022-09-21T04:25:17;35.38;;;18.95;;
70301;SDS011;57706;56.326;43.882;2022-09-21T04:27:43;38.60;;;20.00;;
70301;SDS011;57706;56.326;43.882;2022-09-21T04:30:10;41.85;;;19.70;;
70301;SDS011;57706;56.326;43.882;2022-09-21T04:32:37;40.38;;;20.50;;
70301;SDS011;57706;56.326;43.882;2022-09-21T04:35:03;52.38;;;21.73;;
70301;SDS011;57706;56.326;43.882;2022-09-21T04:37:30;35.10;;;18.83;;
70301;SDS011;57706;56.326;43.882;2022-09-21T04:39:56;52.30;;;21.58;;
70301;SDS011;57706;56.326;43.882;2022-09-21T04:42:22;45.17;;;20.25;;
70301;SDS011;57706;56.326;43.882;2022-09-21T04:44:48;48.22;;;21.27;;
70301;SDS011;57706;56.326;43.882;2022-09-21T04:47:13;51.67;;;21.02;;
70301;SDS011;57706;56.326;43.882;2022-09-21T04:49:39;53.47;;;22.52;;
70301;SDS011;57706;56.326;43.882;2022-09-21T04:52:05;37.10;;;18.73;;
70301;SDS011;57706;56.326;43.882;2022-09-21T04:54:31;40.40;;;21.77;;
70301;SDS011;57706;56.326;43.882;2022-09-21T04:56:57;39.70;;;21.63;;
70301;SDS011;57706;56.326;43.882;2022-09-21T04:59:22;50.20;;;22.73;;
70301;SDS011;57706;56.326;43.882;2022-09-21T05:01:48;39.78;;;20.40;;
70301;SDS011;57706;56.326;43.882;2022-09-21T05:04:14;40.80;;;20.63;;
70301;SDS011;57706;56.326;43.882;2022-09-21T05:06:40;48.25;;;20.38;;
70301;SDS011;57706;56.326;43.882;2022-09-21T05:09:07;39.78;;;20.20;;
70301;SDS011;57706;56.326;43.882;2022-09-21T05:11:51;44.08;;;20.45;;
70301;SDS011;57706;56.326;43.882;2022-09-21T05:14:17;43.35;;;19.27;;
70301;SDS011;57706;56.326;43.882;2022-09-21T05:16:43;44.63;;;21.35;;
70301;SDS011;57706;56.326;43.882;2022-09-21T05:19:09;35.05;;;18.58;;
70301;SDS011;57706;56.326;43.882;2022-09-21T05:21:34;33.90;;;18.38;;
70301;SDS011;57706;56.326;43.882;2022-09-21T05:24:01;34.88;;;16.10;;
70301;SDS011;57706;56.326;43.882;2022-09-21T05:26:27;30.35;;;15.73;;
70301;SDS011;57706;56.326;43.882;2022-09-21T05:28:53;30.38;;;15.98;;
70301;SDS011;57706;56.326;43.882;2022-09-21T05:31:35;36.05;;;17.00;;
70301;SDS011;57706;56.326;43.882;2022-09-21T05:34:52;37.80;;;22.98;;
70301;SDS011;57706;56.326;43.882;2022-09-21T05:37:06;41.42;;;21.83;;
70301;SDS011;57706;56.326;43.882;2022-09-21T05:39:39;45.65;;;24.65;;
70301;SDS011;57706;56.326;43.882;2022-09-21T05:42:05;47.08;;;25.40;;
70301;SDS011;57706;56.326;43.882;2022-09-21T05:44:31;54.75;;;23.83;;
70301;SDS011;57706;56.326;43.882;2022-09-21T05:47:03;46.97;;;26.25;;
70301;SDS011;57706;56.326;43.882;2022-09-21T05:58:06;33.72;;;17.55;;
70301;SDS011;57706;56.326;43.882;2022-09-21T06:03:28;20.85;;;11.07;;
70301;SDS011;57706;56.326;43.882;2022-09-21T06:06:13;12.88;;;8.35;;
70301;SDS011;57706;56.326;43.882;2022-09-21T06:08:40;13.45;;;6.70;;
70301;SDS011;57706;56.326;43.882;2022-09-21T06:11:06;16.02;;;7.65;;
70301;SDS011;57706;56.326;43.882;2022-09-21T06:13:31;14.48;;;8.75;;
70301;SDS011;57706;56.326;43.882;2022-09-21T06:16:00;14.13;;;7.65;;
70301;SDS011;57706;56.326;43.882;2022-09-21T06:18:26;15.43;;;7.22;;
70301;SDS011;57706;56.326;43.882;2022-09-21T06:20:52;14.65;;;7.50;;
70301;SDS011;57706;56.326;43.882;2022-09-21T06:23:18;14.27;;;7.07;;
70301;SDS011;57706;56.326;43.882;2022-09-21T06:25:43;15.88;;;6.95;;
70301;SDS011;57706;56.326;43.882;2022-09-21T06:28:14;10.75;;;6.47;;
70301;SDS011;57706;56.326;43.882;2022-09-21T06:30:40;9.95;;;6.57;;
70301;SDS011;57706;56.326;43.882;2022-09-21T06:33:07;11.40;;;6.38;;
70301;SDS011;57706;56.326;43.882;2022-09-21T06:35:34;13.32;;;7.32;;
70301;SDS011;57706;56.326;43.882;2022-09-21T06:38:01;13.30;;;6.50;;
70301;SDS011;57706;56.326;43.882;2022-09-21T06:40:29;13.07;;;7.82;;
70301;SDS011;57706;56.326;43.882;2022-09-21T06:42:56;10.75;;;7.32;;
70301;SDS011;57706;56.326;43.882;2022-09-21T06:45:23;13.80;;;7.20;;
70301;SDS011;57706;56.326;43.882;2022-09-21T06:47:50;14.15;;;7.35;;
70301;SDS011;57706;56.326;43.882;2022-09-21T06:50:17;9.05;;;6.70;;
70301;SDS011;57706;56.326;43.882;2022-09-21T06:52:44;13.38;;;7.63;;
70301;SDS011;57706;56.326;43.882;2022-09-21T06:55:10;12.20;;;8.27;;
70301;SDS011;57706;56.326;43.882;2022-09-21T06:57:37;14.13;;;8.15;;
70301;SDS011;57706;56.326;43.882;2022-09-21T07:00:04;13.10;;;7.97;;
70301;SDS011;57706;56.326;43.882;2022-09-21T07:02:31;11.73;;;8.50;;
70301;SDS011;57706;56.326;43.882;2022-09-21T07:04:56;12.93;;;7.65;;
70301;SDS011;57706;56.326;43.882;2022-09-21T07:07:23;13.10;;;8.25;;
70301;SDS011;57706;56.326;43.882;2022-09-21T07:09:50;9.35;;;7.00;;
70301;SDS011;57706;56.326;43.882;2022-09-21T07:12:36;8.65;;;6.90;;
70301;SDS011;57706;56.326;43.882;2022-09-21T07:15:02;11.70;;;7.05;;
70301;SDS011;57706;56.326;43.882;2022-09-21T07:17:33;10.65;;;6.82;;
70301;SDS011;57706;56.326;43.882;2022-09-21T07:22:32;7.80;;;6.28;;
70301;SDS011;57706;56.326;43.882;2022-09-21T07:25:17;10.65;;;6.70;;
70301;SDS011;57706;56.326;43.882;2022-09-21T07:27:43;9.35;;;6.57;;
70301;SDS011;57706;56.326;43.882;2022-09-21T07:30:09;11.88;;;6.13;;
70301;SDS011;57706;56.326;43.882;2022-09-21T07:32:35;11.60;;;5.95;;
70301;SDS011;57706;56.326;43.882;2022-09-21T07:35:01;10.30;;;6.53;;
70301;SDS011;57706;56.326;43.882;2022-09-21T07:37:29;9.02;;;5.78;;
70301;SDS011;57706;56.326;43.882;2022-09-21T07:39:55;15.93;;;6.70;;
70301;SDS011;57706;56.326;43.882;2022-09-21T07:42:21;15.60;;;6.60;;
70301;SDS011;57706;56.326;43.882;2022-09-21T07:44:48;10.00;;;6.40;;
70301;SDS011;57706;56.326;43.882;2022-09-21T07:47:14;15.00;;;7.40;;
70301;SDS011;57706;56.326;43.882;2022-09-21T07:49:40;15.45;;;5.88;;
70301;SDS011;57706;56.326;43.882;2022-09-21T07:52:07;12.48;;;6.32;;
70301;SDS011;57706;56.326;43.882;2022-09-21T07:54:34;12.43;;;5.20;;
70301;SDS011;57706;56.326;43.882;2022-09-21T07:57:01;9.30;;;5.95;;
70301;SDS011;57706;56.326;43.882;2022-09-21T08:00:04;7.00;;;4.80;;
70301;SDS011;57706;56.326;43.882;2022-09-21T08:02:37;10.48;;;5.75;;
70301;SDS011;57706;56.326;43.882;2022-09-21T08:05:03;12.30;;;5.47;;
70301;SDS011;57706;56.326;43.882;2022-09-21T08:07:29;11.63;;;5.88;;
70301;SDS011;57706;56.326;43.882;2022-09-21T08:09:55;6.00;;;4.75;;
70301;SDS011;57706;56.326;43.882;2022-09-21T08:12:21;8.65;;;6.28;;
70301;SDS011;57706;56.326;43.882;2022-09-21T08:14:46;12.65;;;6.47;;
70301;SDS011;57706;56.326;43.882;2022-09-21T08:17:12;10.10;;;5.88;;
70301;SDS011;57706;56.326;43.882;2022-09-21T08:19:39;8.95;;;5.97;;
70301;SDS011;57706;56.326;43.882;2022-09-21T08:22:05;9.98;;;6.65;;
70301;SDS011;57706;56.326;43.882;2022-09-21T08:24:31;9.13;;;4.75;;
70301;SDS011;57706;56.326;43.882;2022-09-21T08:26:58;13.27;;;5.22;;
70301;SDS011;57706;56.326;43.882;2022-09-21T08:29:24;6.55;;;5.25;;
70301;SDS011;57706;56.326;43.882;2022-09-21T08:31:51;10.38;;;4.65;;
70301;SDS011;57706;56.326;43.882;2022-09-21T08:34:18;9.57;;;5.63;;
70301;SDS011;57706;56.326;43.882;2022-09-21T08:36:44;10.13;;;5.75;;
70301;SDS011;57706;56.326;43.882;2022-09-21T08:39:11;7.57;;;4.57;;
70301;SDS011;57706;56.326;43.882;2022-09-21T08:47:00;6.30;;;3.97;;
70301;SDS011;57706;56.326;43.882;2022-09-21T08:49:30;8.23;;;4.50;;
70301;SDS011;57706;56.326;43.882;2022-09-21T08:52:00;6.50;;;3.97;;
70301;SDS011;57706;56.326;43.882;2022-09-21T08:57:20;6.00;;;3.40;;
70301;SDS011;57706;56.326;43.882;2022-09-21T09:00:12;10.07;;;4.97;;
70301;SDS011;57706;56.326;43.882;2022-09-21T09:02:45;6.45;;;3.30;;
70301;SDS011;57706;56.326;43.882;2022-09-21T14:34:19;5.55;;;2.78;;
70301;SDS011;57706;56.326;43.882;2022-09-21T14:36:49;7.13;;;2.88;;
70301;SDS011;57706;56.326;43.882;2022-09-21T14:41:50;8.15;;;2.70;;
70301;SDS011;57706;56.326;43.882;2022-09-21T14:44:24;5.40;;;2.13;;
70301;SDS011;57706;56.326;43.882;2022-09-21T15:17:59;5.03;;;2.42;;
70301;SDS011;57706;56.326;43.882;2022-09-21T15:20:27;5.38;;;2.50;;
70301;SDS011;57706;56.326;43.882;2022-09-21T15:22:55;9.02;;;2.58;;
70301;SDS011;57706;56.326;43.882;2022-09-21T15:25:27;10.07;;;2.40;;
70301;SDS011;57706;56.326;43.882;2022-09-21T15:27:54;4.47;;;2.78;;
70301;SDS011;57706;56.326;43.882;2022-09-21T15:30:40;2.70;;;2.40;;
70301;SDS011;57706;56.326;43.882;2022-09-21T15:33:10;5.35;;;3.03;;
70301;SDS011;57706;56.326;43.882;2022-09-21T15:35:38;6.03;;;2.63;;
70301;SDS011;57706;56.326;43.882;2022-09-21T15:38:24;7.13;;;2.92;;
70301;SDS011;57706;56.326;43.882;2022-09-21T15:40:58;3.38;;;2.28;;
70301;SDS011;57706;56.326;43.882;2022-09-21T15:43:24;8.35;;;2.85;;
70301;SDS011;57706;56.326;43.882;2022-09-21T15:48:16;10.18;;;2.95;;
70301;SDS011;57706;56.326;43.882;2022-09-21T15:50:44;3.97;;;2.78;;
70301;SDS011;57706;56.326;43.882;2022-09-21T15:53:17;5.13;;;2.90;;
70301;SDS011;57706;56.326;43.882;2022-09-21T15:55:53;6.50;;;3.05;;
70301;SDS011;57706;56.326;43.882;2022-09-21T15:58:26;8.30;;;4.95;;
70301;SDS011;57706;56.326;43.882;2022-09-21T16:01:23;4.82;;;3.30;;
70301;SDS011;57706;56.326;43.882;2022-09-21T16:04:03;4.43;;;3.28;;
70301;SDS011;57706;56.326;43.882;2022-09-21T16:06:37;6.60;;;3.60;;
70301;SDS011;57706;56.326;43.882;2022-09-21T16:11:56;5.40;;;3.70;;
70301;SDS011;57706;56.326;43.882;2022-09-21T16:14:22;5.22;;;3.80;;
70301;SDS011;57706;56.326;43.882;2022-09-21T16:19:41;7.25;;;4.18;;
70301;SDS011;57706;56.326;43.882;2022-09-21T16:22:14;5.90;;;3.97;;
70301;SDS011;57706;56.326;43.882;2022-09-21T16:24:49;7.90;;;3.90;;
70301;SDS011;57706;56.326;43.882;2022-09-21T16:27:19;9.75;;;3.88;;
70301;SDS011;57706;56.326;43.882;2022-09-21T16:29:48;6.82;;;3.55;;
70301;SDS011;57706;56.326;43.882;2022-09-21T16:34:47;4.35;;;3.30;;
70301;SDS011;57706;56.326;43.882;2022-09-21T16:37:25;5.75;;;3.63;;
70301;SDS011;57706;56.326;43.882;2022-09-21T16:39:53;6.70;;;3.03;;
70301;SDS011;57706;56.326;43.882;2022-09-21T16:42:21;4.72;;;2.92;;
70301;SDS011;57706;56.326;43.882;2022-09-21T16:44:48;4.72;;;2.38;;
70301;SDS011;57706;56.326;43.882;2022-09-21T16:47:21;3.72;;;2.92;;
70301;SDS011;57706;56.326;43.882;2022-09-21T16:49:50;5.05;;;3.03;;
70301;SDS011;57706;56.326;43.882;2022-09-21T16:52:21;5.30;;;3.13;;
70301;SDS011;57706;56.326;43.882;2022-09-21T16:54:48;3.50;;;2.92;;
70301;SDS011;57706;56.326;43.882;2022-09-21T16:57:15;5.32;;;3.40;;
70301;SDS011;57706;56.326;43.882;2022-09-21T16:59:41;4.88;;;2.90;;
70301;SDS011;57706;56.326;43.882;2022-09-21T17:02:10;3.95;;;2.85;;
70301;SDS011;57706;56.326;43.882;2022-09-21T17:04:38;3.75;;;2.60;;
70301;SDS011;57706;56.326;43.882;2022-09-21T17:07:04;4.07;;;2.83;;
70301;SDS011;57706;56.326;43.882;2022-09-21T17:09:34;4.63;;;3.28;;
70301;SDS011;57706;56.326;43.882;2022-09-21T17:12:05;3.88;;;2.83;;
70301;SDS011;57706;56.326;43.882;2022-09-21T17:14:33;4.60;;;2.90;;
70301;SDS011;57706;56.326;43.882;2022-09-21T17:17:04;3.60;;;2.95;;
70301;SDS011;57706;56.326;43.882;2022-09-21T17:19:35;5.38;;;3.15;;
70301;SDS011;57706;56.326;43.882;2022-09-21T17:22:21;4.18;;;2.85;;
70301;SDS011;57706;56.326;43.882;2022-09-21T17:24:50;3.15;;;2.78;;
70301;SDS011;57706;56.326;43.882;2022-09-21T17:27:16;3.10;;;2.85;;
70301;SDS011;57706;56.326;43.882;2022-09-21T17:29:44;3.72;;;3.15;;
70301;SDS011;57706;56.326;43.882;2022-09-21T17:32:14;3.80;;;3.20;;
70301;SDS011;57706;56.326;43.882;2022-09-21T17:34:44;3.30;;;3.00;;
70301;SDS011;57706;56.326;43.882;2022-09-21T17:37:30;3.75;;;3.38;;
70301;SDS011;57706;56.326;43.882;2022-09-21T17:39:58;8.13;;;3.85;;
70301;SDS011;57706;56.326;43.882;2022-09-21T17:42:23;4.55;;;3.38;;
70301;SDS011;57706;56.326;43.882;2022-09-21T17:44:55;6.22;;;3.50;;
70301;SDS011;57706;56.326;43.882;2022-09-21T17:47:37;5.93;;;3.50;;
70301;SDS011;57706;56.326;43.882;2022-09-21T17:50:14;4.43;;;3.30;;
70301;SDS011;57706;56.326;43.882;2022-09-21T17:52:47;5.63;;;2.95;;
70301;SDS011;57706;56.326;43.882;2022-09-21T17:55:32;5.03;;;3.20;;
70301;SDS011;57706;56.326;43.882;2022-09-21T17:58:33;4.97;;;3.63;;
70301;SDS011;57706;56.326;43.882;2022-09-21T18:01:24;3.88;;;3.08;;
70301;SDS011;57706;56.326;43.882;2022-09-21T18:03:51;4.90;;;3.40;;
70301;SDS011;57706;56.326;43.882;2022-09-21T18:06:17;4.20;;;3.50;;
70301;SDS011;57706;56.326;43.882;2022-09-21T18:08:43;5.13;;;3.53;;
70301;SDS011;57706;56.326;43.882;2022-09-21T18:20:14;4.43;;;3.67;;
70301;SDS011;57706;56.326;43.882;2022-09-21T18:25:43;5.22;;;3.58;;
70301;SDS011;57706;56.326;43.882;2022-09-21T18:28:15;4.75;;;4.00;;
70301;SDS011;57706;56.326;43.882;2022-09-21T18:34:04;4.53;;;3.50;;
70301;SDS011;57706;56.326;43.882;2022-09-21T18:53:48;3.42;;;3.10;;
70301;SDS011;57706;56.326;43.882;2022-09-21T18:58:42;4.55;;;3.03;;
70301;SDS011;57706;56.326;43.882;2022-09-21T19:01:10;5.00;;;3.35;;
70301;SDS011;57706;56.326;43.882;2022-09-21T19:03:37;5.55;;;3.60;;
70301;SDS011;57706;56.326;43.882;2022-09-21T19:14:14;6.18;;;3.67;;
70301;SDS011;57706;56.326;43.882;2022-09-21T19:25:28;9.52;;;4.65;;
70301;SDS011;57706;56.326;43.882;2022-09-21T19:31:12;6.50;;;4.57;;
70301;SDS011;57706;56.326;43.882;2022-09-21T19:33:43;7.15;;;5.30;;
70301;SDS011;57706;56.326;43.882;2022-09-21T19:36:28;6.63;;;4.95;;
70301;SDS011;57706;56.326;43.882;2022-09-21T19:38:54;8.60;;;4.95;;
70301;SDS011;57706;56.326;43.882;2022-09-21T19:44:53;4.32;;;3.92;;
70301;SDS011;57706;56.326;43.882;2022-09-21T19:50:14;5.40;;;4.13;;
70301;SDS011;57706;56.326;43.882;2022-09-21T19:52:43;4.28;;;3.70;;
70301;SDS011;57706;56.326;43.882;2022-09-21T19:55:13;4.45;;;3.83;;
70301;SDS011;57706;56.326;43.882;2022-09-21T19:58:00;6.47;;;4.18;;
70301;SDS011;57706;56.326;43.882;2022-09-21T20:00:46;6.07;;;4.00;;
70301;SDS011;57706;56.326;43.882;2022-09-21T20:03:27;5.47;;;4.40;;
70301;SDS011;57706;56.326;43.882;2022-09-21T20:06:06;3.55;;;3.17;;
70301;SDS011;57706;56.326;43.882;2022-09-21T20:08:57;3.90;;;3.10;;
70301;SDS011;57706;56.326;43.882;2022-09-21T20:11:45;4.55;;;3.35;;
70301;SDS011;57706;56.326;43.882;2022-09-21T20:17:10;4.63;;;3.25;;
70301;SDS011;57706;56.326;43.882;2022-09-21T20:20:02;3.88;;;3.22;;
70301;SDS011;57706;56.326;43.882;2022-09-21T20:22:38;4.35;;;3.50;;
70301;SDS011;57706;56.326;43.882;2022-09-21T20:27:41;4.47;;;3.92;;
70301;SDS011;57706;56.326;43.882;2022-09-21T20:30:14;5.28;;;3.30;;
70301;SDS011;57706;56.326;43.882;2022-09-21T20:32:43;3.55;;;3.13;;
70301;SDS011;57706;56.326;43.882;2022-09-21T20:35:21;3.50;;;3.00;;
70301;SDS011;57706;56.326;43.882;2022-09-21T20:37:48;3.38;;;3.08;;
70301;SDS011;57706;56.326;43.882;2022-09-21T20:40:17;4.97;;;3.03;;
70301;SDS011;57706;56.326;43.882;2022-09-21T20:42:44;4.10;;;3.08;;
70301;SDS011;57706;56.326;43.882;2022-09-21T20:45:11;4.43;;;2.95;;
70301;SDS011;57706;56.326;43.882;2022-09-21T20:47:37;3.45;;;3.15;;
70301;SDS011;57706;56.326;43.882;2022-09-21T20:50:04;5.03;;;3.15;;
70301;SDS011;57706;56.326;43.882;2022-09-21T20:52:36;3.78;;;3.35;;
70301;SDS011;57706;56.326;43.882;2022-09-21T20:55:04;3.40;;;2.92;;
70301;SDS011;57706;56.326;43.882;2022-09-21T20:57:33;4.82;;;3.92;;
70301;SDS011;57706;56.326;43.882;2022-09-21T21:00:21;4.10;;;3.47;;
70301;SDS011;57706;56.326;43.882;2022-09-21T21:02:47;5.38;;;3.60;;
70301;SDS011;57706;56.326;43.882;2022-09-21T21:05:12;5.38;;;3.90;;
70301;SDS011;57706;56.326;43.882;2022-09-21T21:07:39;4.82;;;3.90;;
70301;SDS011;57706;56.326;43.882;2022-09-21T21:10:06;5.63;;;3.65;;
70301;SDS011;57706;56.326;43.882;2022-09-21T21:12:36;5.10;;;3.90;;
70301;SDS011;57706;56.326;43.882;2022-09-21T21:15:03;5.57;;;3.75;;
70301;SDS011;57706;56.326;43.882;2022-09-21T21:17:29;4.20;;;3.80;;
70301;SDS011;57706;56.326;43.882;2022-09-21T21:19:55;4.70;;;3.50;;
70301;SDS011;57706;56.326;43.882;2022-09-21T21:22:21;5.93;;;4.00;;
70301;SDS011;57706;56.326;43.882;2022-09-21T21:24:47;6.68;;;4.72;;
70301;SDS011;57706;56.326;43.882;2022-09-21T21:27:14;4.82;;;3.30;;
70301;SDS011;57706;56.326;43.882;2022-09-21T21:29:45;4.90;;;3.50;;
70301;SDS011;57706;56.326;43.882;2022-09-21T21:32:32;4.10;;;3.22;;
70301;SDS011;57706;56.326;43.882;2022-09-21T21:35:17;5.10;;;3.20;;
70301;SDS011;57706;56.326;43.882;2022-09-21T21:37:43;4.00;;;3.60;;
70301;SDS011;57706;56.326;43.882;2022-09-21T21:40:09;4.07;;;3.22;;
70301;SDS011;57706;56.326;43.882;2022-09-21T21:42:35;3.95;;;3.15;;
70301;SDS011;57706;56.326;43.882;2022-09-21T21:45:02;5.50;;;3.63;;
70301;SDS011;57706;56.326;43.882;2022-09-21T21:47:29;5.57;;;3.42;;
70301;SDS011;57706;56.326;43.882;2022-09-21T21:49:55;3.50;;;3.10;;
70301;SDS011;57706;56.326;43.882;2022-09-21T21:52:20;5.18;;;3.15;;
70301;SDS011;57706;56.326;43.882;2022-09-21T21:54:46;6.15;;;3.05;;
70301;SDS011;57706;56.326;43.882;2022-09-21T21:57:12;4.45;;;3.45;;
70301;SDS011;57706;56.326;43.882;2022-09-21T21:59:39;3.60;;;3.15;;
70301;SDS011;57706;56.326;43.882;2022-09-21T22:02:05;4.43;;;3.38;;
70301;SDS011;57706;56.326;43.882;2022-09-21T22:04:30;4.32;;;3.17;;
70301;SDS011;57706;56.326;43.882;2022-09-21T22:06:56;6.25;;;3.95;;
70301;SDS011;57706;56.326;43.882;2022-09-21T22:09:22;4.25;;;3.78;;
70301;SDS011;57706;56.326;43.882;2022-09-21T22:11:48;4.28;;;3.50;;
70301;SDS011;57706;56.326;43.882;2022-09-21T22:14:14;4.72;;;3.28;;
70301;SDS011;57706;56.326;43.882;2022-09-21T22:16:39;4.68;;;3.25;;
70301;SDS011;57706;56.326;43.882;2022-09-21T22:19:06;4.00;;;3.40;;
70301;SDS011;57706;56.326;43.882;2022-09-21T22:21:33;5.15;;;3.55;;
70301;SDS011;57706;56.326;43.882;2022-09-21T22:26:31;4.57;;;3.15;;
70301;SDS011;57706;56.326;43.882;2022-09-21T22:29:00;3.95;;;3.20;;
70301;SDS011;57706;56.326;43.882;2022-09-21T22:31:29;3.80;;;3.40;;
70301;SDS011;57706;56.326;43.882;2022-09-21T22:33:57;5.38;;;3.10;;
70301;SDS011;57706;56.326;43.882;2022-09-21T22:36:25;3.72;;;3.33;;
70301;SDS011;57706;56.326;43.882;2022-09-21T22:38:53;5.85;;;3.28;;
70301;SDS011;57706;56.326;43.882;2022-09-21T22:41:23;4.30;;;3.30;;
70301;SDS011;57706;56.326;43.882;2022-09-21T22:43:52;4.47;;;3.53;;
70301;SDS011;57706;56.326;43.882;2022-09-21T22:46:19;6.03;;;3.33;;
70301;SDS011;57706;56.326;43.882;2022-09-21T22:48:46;5.22;;;3.10;;
70301;SDS011;57706;56.326;43.882;2022-09-21T22:51:13;5.47;;;3.35;;
70301;SDS011;57706;56.326;43.882;2022-09-21T22:53:58;4.53;;;3.45;;
70301;SDS011;57706;56.326;43.882;2022-09-21T22:56:27;3.90;;;3.20;;